createdAt,value
2018-01-22T00:00:14.844Z,2.39
2018-01-22T00:01:14.808Z,2.33
2018-01-22T00:02:14.766Z,2.44
2018-01-22T00:03:14.716Z,2.46
2018-01-22T00:04:14.682Z,2.44
2018-01-22T00:05:14.630Z,2.46
2018-01-22T00:06:14.588Z,2.43
2018-01-22T00:07:14.544Z,2.42
2018-01-22T00:08:14.500Z,2.36
2018-01-22T00:09:14.459Z,2.33
2018-01-22T00:10:14.415Z,2.36
2018-01-22T00:11:14.372Z,2.50
2018-01-22T00:12:14.333Z,2.38
2018-01-22T00:13:14.285Z,2.36
2018-01-22T00:14:14.244Z,2.38
2018-01-22T00:15:14.202Z,2.47
2018-01-22T00:16:14.161Z,2.43
2018-01-22T00:17:14.115Z,2.53
2018-01-22T00:18:14.076Z,2.42
2018-01-22T00:19:14.034Z,2.49
2018-01-22T00:20:13.989Z,2.42
2018-01-22T00:21:13.952Z,2.47
2018-01-22T00:22:13.902Z,2.32
2018-01-22T00:23:13.861Z,2.33
2018-01-22T00:24:13.821Z,2.47
2018-01-22T00:25:13.774Z,2.25
2018-01-22T00:26:13.731Z,2.29
2018-01-22T00:27:13.691Z,2.17
2018-01-22T00:28:13.647Z,2.31
2018-01-22T00:29:13.604Z,2.29
2018-01-22T00:30:13.559Z,2.18
2018-01-22T00:31:13.518Z,2.25
2018-01-22T00:32:13.484Z,2.02
2018-01-22T00:33:13.432Z,1.92
2018-01-22T00:34:13.407Z,1.89
2018-01-22T00:35:13.344Z,1.88
2018-01-22T00:36:13.302Z,1.97
2018-01-22T00:37:13.259Z,1.91
2018-01-22T00:38:13.218Z,1.95
2018-01-22T00:39:13.176Z,1.88
2018-01-22T00:40:13.132Z,2.04
2018-01-22T00:41:13.089Z,2.02
2018-01-22T00:42:13.047Z,1.85
2018-01-22T00:43:13.006Z,1.71
2018-01-22T00:44:12.978Z,1.71
2018-01-22T00:45:12.918Z,1.77
2018-01-22T00:46:12.878Z,1.67
2018-01-22T00:47:12.831Z,1.76
2018-01-22T00:48:12.806Z,1.73
2018-01-22T00:49:12.747Z,1.62
2018-01-22T00:50:12.704Z,1.58
2018-01-22T00:51:12.661Z,1.58
2018-01-22T00:52:12.620Z,1.68
2018-01-22T00:53:12.575Z,1.70
2018-01-22T00:54:12.533Z,1.76
2018-01-22T00:55:12.493Z,1.85
2018-01-22T00:56:12.445Z,1.85
2018-01-22T00:57:12.404Z,2.06
2018-01-22T00:58:12.366Z,2.13
2018-01-22T00:59:12.318Z,2.24
2018-01-22T01:00:12.276Z,2.10
2018-01-22T01:01:12.234Z,2.11
2018-01-22T01:02:12.189Z,2.06
2018-01-22T01:03:12.151Z,2.10
2018-01-22T01:04:12.110Z,2.20
2018-01-22T01:05:12.058Z,2.11
2018-01-22T01:06:12.019Z,2.10
2018-01-22T01:07:11.972Z,2.11
2018-01-22T01:08:11.939Z,2.10
2018-01-22T01:09:11.889Z,2.08
2018-01-22T01:10:11.844Z,2.07
2018-01-22T01:11:11.801Z,2.06
2018-01-22T01:12:11.755Z,2.11
2018-01-22T01:13:11.719Z,2.11
2018-01-22T01:14:11.670Z,2.13
2018-01-22T01:15:11.633Z,2.06
2018-01-22T01:16:11.586Z,1.89
2018-01-22T01:17:11.552Z,1.89
2018-01-22T01:18:11.499Z,1.94
2018-01-22T01:19:11.456Z,1.81
2018-01-22T01:20:11.416Z,1.78
2018-01-22T01:21:11.372Z,1.63
2018-01-22T01:22:11.334Z,1.68
2018-01-22T01:23:11.296Z,1.76
2018-01-22T01:24:11.246Z,1.63
2018-01-22T01:25:11.210Z,1.74
2018-01-22T01:26:11.160Z,1.85
2018-01-22T01:27:11.129Z,1.92
2018-01-22T01:28:11.071Z,2.11
2018-01-22T01:29:11.043Z,2.13
2018-01-22T01:30:11.017Z,2.22
2018-01-22T01:31:10.944Z,2.28
2018-01-22T01:32:10.899Z,2.18
2018-01-22T01:33:10.863Z,2.24
2018-01-22T01:34:10.814Z,2.20
2018-01-22T01:35:10.799Z,2.31
2018-01-22T01:36:10.735Z,2.31
2018-01-22T01:37:10.706Z,2.28
2018-01-22T01:38:10.682Z,2.14
2018-01-22T01:39:10.603Z,2.02
2018-01-22T01:40:10.565Z,1.73
2018-01-22T01:41:10.510Z,1.74
2018-01-22T01:42:10.484Z,1.68
2018-01-22T01:43:10.433Z,1.77
2018-01-22T01:44:10.387Z,1.77
2018-01-22T01:45:10.342Z,1.74
2018-01-22T01:46:10.298Z,1.67
2018-01-22T01:47:10.270Z,1.68
2018-01-22T01:48:10.237Z,1.63
2018-01-22T01:49:10.170Z,1.74
2018-01-22T01:50:10.125Z,1.89
2018-01-22T01:51:10.104Z,1.84
2018-01-22T01:52:10.040Z,1.99
2018-01-22T01:53:09.996Z,2.10
2018-01-22T01:54:09.954Z,2.02
2018-01-22T01:55:09.912Z,2.11
2018-01-22T01:56:09.867Z,2.17
2018-01-22T01:57:09.823Z,2.10
2018-01-22T01:58:09.781Z,2.17
2018-01-22T01:59:09.739Z,2.24
2018-01-22T02:00:09.701Z,2.10
2018-01-22T02:01:09.655Z,2.04
2018-01-22T02:02:09.609Z,2.06
2018-01-22T02:03:09.580Z,2.07
2018-01-22T02:04:09.522Z,2.08
2018-01-22T02:05:09.480Z,2.08
2018-01-22T02:06:09.444Z,2.08
2018-01-22T02:07:09.400Z,2.08
2018-01-22T02:08:09.350Z,2.11
2018-01-22T02:09:09.307Z,2.02
2018-01-22T02:10:09.265Z,2.10
2018-01-22T02:13:40.736Z,1.92
2018-01-22T02:14:40.689Z,1.77
2018-01-22T02:16:33.495Z,1.74
2018-01-22T02:17:33.473Z,1.74
2018-01-22T02:19:26.243Z,1.73
2018-01-22T02:20:26.199Z,1.67
2018-01-22T02:22:19.013Z,1.68
2018-01-22T02:23:19.048Z,1.68
2018-01-22T02:25:11.781Z,1.62
2018-01-22T02:26:11.714Z,1.59
2018-01-22T02:28:04.524Z,1.66
2018-01-22T02:29:04.468Z,1.77
2018-01-22T02:30:57.274Z,1.76
2018-01-22T02:31:57.227Z,1.71
2018-01-22T02:33:50.050Z,1.87
2018-01-22T02:34:49.982Z,1.74
2018-01-22T02:36:42.821Z,1.76
2018-01-22T02:37:42.744Z,1.81
2018-01-22T02:39:35.547Z,1.84
2018-01-22T02:40:35.503Z,1.85
2018-01-22T02:42:28.584Z,1.63
2018-01-22T02:43:28.253Z,1.71
2018-01-22T02:45:21.072Z,1.66
2018-01-22T02:46:21.010Z,1.60
2018-01-22T02:48:13.825Z,1.67
2018-01-22T02:49:13.764Z,1.60
2018-01-22T02:51:06.582Z,1.62
2018-01-22T02:52:06.540Z,1.58
2018-01-22T02:53:59.601Z,1.53
2018-01-22T02:54:59.419Z,1.58
2018-01-22T02:56:52.194Z,1.53
2018-01-22T02:57:52.121Z,1.62
2018-01-22T02:59:44.938Z,1.53
2018-01-22T03:00:44.871Z,1.58
2018-01-22T03:02:37.674Z,1.58
2018-01-22T03:03:37.626Z,1.55
2018-01-22T03:05:30.432Z,1.53
2018-01-22T03:06:30.384Z,1.49
2018-01-22T03:08:23.207Z,1.53
2018-01-22T03:09:23.157Z,1.50
2018-01-22T03:11:15.962Z,1.56
2018-01-22T03:12:15.908Z,1.59
2018-01-22T03:14:08.744Z,1.67
2018-01-22T03:15:08.683Z,1.73
2018-01-22T03:17:01.900Z,1.88
2018-01-22T03:18:01.498Z,1.92
2018-01-22T03:19:54.304Z,1.91
2018-01-22T03:20:54.242Z,1.88
2018-01-22T03:22:47.111Z,1.67
2018-01-22T03:23:47.038Z,1.56
2018-01-22T03:25:39.862Z,1.60
2018-01-22T03:26:39.796Z,1.63
2018-01-22T03:28:32.601Z,1.71
2018-01-22T03:29:32.553Z,1.68
2018-01-22T03:31:25.360Z,1.88
2018-01-22T03:32:25.304Z,1.88
2018-01-22T03:34:18.141Z,1.74
2018-01-22T03:35:18.060Z,1.63
2018-01-22T03:37:10.867Z,1.66
2018-01-22T03:38:10.824Z,1.63
2018-01-22T03:40:03.640Z,1.55
2018-01-22T03:41:03.588Z,1.58
2018-01-22T03:42:56.408Z,1.58
2018-01-22T03:43:56.337Z,1.56
2018-01-22T03:45:49.158Z,1.58
2018-01-22T03:46:49.097Z,1.60
2018-01-22T03:48:41.993Z,1.56
2018-01-22T03:49:41.959Z,1.53
2018-01-22T03:51:34.764Z,1.59
2018-01-22T03:52:34.709Z,1.50
2018-01-22T03:54:27.535Z,1.50
2018-01-22T03:55:27.462Z,1.59
2018-01-22T03:57:20.267Z,1.62
2018-01-22T03:58:20.222Z,1.56
2018-01-22T04:00:13.053Z,1.56
2018-01-22T04:01:12.975Z,1.55
2018-01-22T04:03:05.784Z,1.62
2018-01-22T04:04:05.742Z,1.59
2018-01-22T04:05:58.647Z,1.56
2018-01-22T04:06:58.494Z,1.68
2018-01-22T04:08:51.292Z,1.68
2018-01-22T04:09:51.255Z,1.56
2018-01-22T04:11:44.131Z,1.58
2018-01-22T04:12:44.000Z,1.50
2018-01-22T04:14:36.817Z,1.58
2018-01-22T04:15:36.763Z,1.56
2018-01-22T04:17:29.586Z,1.60
2018-01-22T04:18:29.531Z,1.59
2018-01-22T04:20:22.369Z,1.56
2018-01-22T04:21:22.315Z,1.53
2018-01-22T04:23:15.119Z,1.55
2018-01-22T04:24:15.070Z,1.52
2018-01-22T04:26:07.888Z,1.68
2018-01-22T04:27:07.820Z,1.74
2018-01-22T04:29:00.623Z,1.84
2018-01-22T04:30:00.569Z,1.71
2018-01-22T04:31:53.388Z,1.67
2018-01-22T04:32:53.333Z,1.77
2018-01-22T04:34:46.142Z,1.59
2018-01-22T04:35:46.098Z,1.41
2018-01-22T04:37:38.902Z,1.45
2018-01-22T04:38:38.846Z,1.41
2018-01-22T04:40:31.653Z,1.42
2018-01-22T04:41:31.596Z,1.42
2018-01-22T04:43:24.411Z,1.44
2018-01-22T04:44:24.370Z,1.49
2018-01-22T04:46:17.197Z,1.40
2018-01-22T04:47:17.132Z,1.42
2018-01-22T04:49:09.958Z,1.37
2018-01-22T04:50:09.887Z,1.34
2018-01-22T04:52:02.707Z,1.38
2018-01-22T04:53:02.640Z,1.30
2018-01-22T04:54:55.456Z,1.26
2018-01-22T04:55:55.402Z,1.24
2018-01-22T04:57:48.233Z,1.31
2018-01-22T04:58:48.162Z,1.20
2018-01-22T05:00:41.007Z,1.26
2018-01-22T05:01:40.937Z,1.22
2018-01-22T05:03:33.783Z,1.24
2018-01-22T05:04:33.737Z,1.23
2018-01-22T05:06:26.556Z,1.32
2018-01-22T05:07:26.505Z,1.24
2018-01-22T05:09:19.330Z,1.35
2018-01-22T05:10:19.276Z,1.34
2018-01-22T05:12:12.085Z,1.44
2018-01-22T05:13:12.032Z,1.32
2018-01-22T05:15:04.830Z,1.49
2018-01-22T05:16:04.781Z,1.48
2018-01-22T05:17:57.700Z,1.41
2018-01-22T05:18:57.544Z,1.40
2018-01-22T05:20:50.736Z,1.44
2018-01-22T05:21:50.321Z,1.37
2018-01-22T05:23:43.131Z,1.45
2018-01-22T05:24:43.085Z,1.34
2018-01-22T05:26:36.024Z,1.32
2018-01-22T05:27:35.844Z,1.37
2018-01-22T05:29:28.677Z,1.32
2018-01-22T05:30:28.692Z,1.30
2018-01-22T05:32:22.450Z,1.34
2018-01-22T05:33:22.416Z,1.40
2018-01-22T05:35:15.244Z,1.45
2018-01-22T05:36:15.118Z,1.42
2018-01-22T05:37:15.104Z,1.42
2018-01-22T05:38:15.028Z,1.44
2018-01-22T05:39:14.988Z,1.44
2018-01-22T05:40:14.950Z,1.49
2018-01-22T05:41:14.898Z,1.45
2018-01-22T05:42:14.853Z,1.44
2018-01-22T05:43:14.813Z,1.44
2018-01-22T05:44:14.779Z,1.48
2018-01-22T05:45:14.724Z,1.45
2018-01-22T05:46:14.682Z,1.48
2018-01-22T05:47:14.647Z,1.48
2018-01-22T05:48:14.596Z,1.55
2018-01-22T05:49:14.565Z,1.60
2018-01-22T05:50:14.506Z,1.45
2018-01-22T05:51:14.467Z,1.45
2018-01-22T05:52:14.418Z,1.59
2018-01-22T05:53:14.378Z,1.53
2018-01-22T05:54:14.336Z,1.55
2018-01-22T05:55:14.287Z,1.53
2018-01-22T05:56:14.262Z,1.53
2018-01-22T05:57:14.202Z,1.59
2018-01-22T05:58:14.159Z,1.59
2018-01-22T05:59:14.114Z,1.62
2018-01-22T06:00:14.072Z,1.59
2018-01-22T06:01:14.026Z,1.58
2018-01-22T06:02:13.983Z,1.56
2018-01-22T06:03:13.940Z,1.58
2018-01-22T06:04:13.899Z,1.50
2018-01-22T06:05:13.865Z,1.60
2018-01-22T06:06:13.806Z,1.55
2018-01-22T06:07:13.768Z,1.55
2018-01-22T06:08:13.724Z,1.50
2018-01-22T06:09:13.684Z,1.55
2018-01-22T06:10:13.635Z,1.58
2018-01-22T06:11:13.592Z,1.49
2018-01-22T06:12:13.553Z,1.53
2018-01-22T06:13:13.506Z,1.50
2018-01-22T06:14:13.464Z,1.58
2018-01-22T06:15:13.417Z,1.55
2018-01-22T06:16:13.394Z,1.58
2018-01-22T06:17:13.333Z,1.53
2018-01-22T06:18:13.296Z,1.50
2018-01-22T06:19:13.243Z,1.59
2018-01-22T06:20:13.203Z,1.62
2018-01-22T06:21:13.157Z,1.55
2018-01-22T06:22:13.110Z,1.52
2018-01-22T06:23:13.071Z,1.53
2018-01-22T06:24:13.026Z,1.55
2018-01-22T06:25:12.984Z,1.56
2018-01-22T06:26:12.943Z,1.58
2018-01-22T06:27:12.896Z,1.53
2018-01-22T06:28:12.855Z,1.55
2018-01-22T06:29:12.811Z,1.49
2018-01-22T06:30:12.768Z,1.59
2018-01-22T06:31:12.732Z,1.59
2018-01-22T06:32:12.680Z,1.44
2018-01-22T06:33:12.645Z,1.48
2018-01-22T06:34:12.613Z,1.50
2018-01-22T06:35:12.548Z,1.49
2018-01-22T06:36:12.520Z,1.55
2018-01-22T06:37:12.464Z,1.58
2018-01-22T06:38:12.428Z,1.55
2018-01-22T06:39:12.383Z,1.44
2018-01-22T06:40:12.331Z,1.48
2018-01-22T06:41:12.290Z,1.45
2018-01-22T06:42:12.246Z,1.49
2018-01-22T06:44:43.937Z,1.49
2018-01-22T06:45:43.686Z,1.45
2018-01-22T06:47:36.504Z,1.50
2018-01-22T06:48:36.443Z,1.49
2018-01-22T06:50:29.954Z,1.44
2018-01-22T06:51:29.245Z,1.48
2018-01-22T06:53:22.014Z,1.45
2018-01-22T06:54:21.964Z,1.45
2018-01-22T06:56:14.776Z,1.45
2018-01-22T06:57:14.725Z,1.45
2018-01-22T06:59:07.570Z,1.45
2018-01-22T07:00:07.485Z,1.49
2018-01-22T07:02:00.327Z,1.45
2018-01-22T07:03:00.250Z,1.45
2018-01-22T07:04:53.060Z,1.45
2018-01-22T07:05:53.013Z,1.50
2018-01-22T07:07:45.852Z,1.49
2018-01-22T07:08:45.785Z,1.42
2018-01-22T07:10:38.646Z,1.42
2018-01-22T07:11:38.541Z,1.49
2018-01-22T07:13:31.350Z,1.52
2018-01-22T07:14:31.299Z,1.40
2018-01-22T07:16:24.095Z,1.48
2018-01-22T07:17:24.050Z,1.52
2018-01-22T07:19:16.873Z,1.48
2018-01-22T07:20:16.808Z,1.60
2018-01-22T07:22:09.627Z,1.53
2018-01-22T07:23:09.562Z,1.55
2018-01-22T07:25:02.381Z,1.55
2018-01-22T07:26:02.379Z,1.58
2018-01-22T07:27:55.135Z,1.53
2018-01-22T07:28:55.079Z,1.50
2018-01-22T07:30:47.890Z,1.63
2018-01-22T07:31:47.842Z,1.74
2018-01-22T07:33:40.665Z,1.71
2018-01-22T07:34:40.615Z,1.62
2018-01-22T07:36:33.414Z,1.74
2018-01-22T07:37:33.379Z,1.71
2018-01-22T07:39:26.166Z,1.81
2018-01-22T07:40:26.108Z,1.77
2018-01-22T07:42:19.509Z,1.78
2018-01-22T07:43:18.929Z,1.80
2018-01-22T07:45:11.756Z,1.70
2018-01-22T07:46:11.690Z,1.68
2018-01-22T07:48:04.481Z,1.80
2018-01-22T07:49:04.425Z,1.71
2018-01-22T07:50:57.408Z,1.63
2018-01-22T07:51:57.186Z,1.63
2018-01-22T07:53:50.012Z,1.58
2018-01-22T07:54:49.942Z,1.55
2018-01-22T07:56:42.765Z,1.55
2018-01-22T07:57:42.714Z,1.59
2018-01-22T07:59:35.521Z,1.53
2018-01-22T08:00:35.463Z,1.56
2018-01-22T08:02:28.379Z,1.56
2018-01-22T08:03:28.333Z,1.60
2018-01-22T08:05:21.141Z,1.66
2018-01-22T08:06:21.105Z,1.71
2018-01-22T08:08:13.902Z,1.62
2018-01-22T08:09:13.845Z,1.66
2018-01-22T08:11:06.652Z,1.74
2018-01-22T08:12:06.607Z,1.73
2018-01-22T08:13:59.424Z,1.74
2018-01-22T08:14:59.366Z,1.70
2018-01-22T08:16:52.226Z,1.78
2018-01-22T08:17:52.143Z,1.87
2018-01-22T08:19:44.950Z,1.76
2018-01-22T08:20:44.878Z,1.71
2018-01-22T08:22:37.687Z,1.85
2018-01-22T08:23:37.638Z,1.77
2018-01-22T08:25:30.463Z,1.76
2018-01-22T08:26:30.441Z,1.85
2018-01-22T08:28:23.277Z,1.94
2018-01-22T08:29:23.261Z,1.99
2018-01-22T08:31:16.112Z,2.04
2018-01-22T08:32:15.989Z,1.95
2018-01-22T08:34:08.801Z,1.99
2018-01-22T08:35:08.775Z,1.91
2018-01-22T08:37:01.555Z,2.04
2018-01-22T08:38:01.517Z,1.92
2018-01-22T08:39:54.326Z,2.02
2018-01-22T08:40:54.264Z,2.10
2018-01-22T08:42:47.089Z,2.04
2018-01-22T08:43:47.029Z,2.07
2018-01-22T08:45:39.835Z,1.88
2018-01-22T08:46:39.778Z,2.00
2018-01-22T08:48:32.586Z,1.99
2018-01-22T08:49:32.547Z,1.92
2018-01-22T08:51:25.354Z,2.04
2018-01-22T08:52:25.293Z,2.04
2018-01-22T08:54:18.120Z,2.06
2018-01-22T08:55:18.073Z,2.14
2018-01-22T08:57:10.861Z,2.10
2018-01-22T08:58:10.815Z,2.31
2018-01-22T09:00:03.651Z,2.17
2018-01-22T09:01:03.595Z,2.15
2018-01-22T09:02:56.595Z,2.28
2018-01-22T09:03:56.389Z,2.25
2018-01-22T09:05:49.176Z,2.26
2018-01-22T09:06:49.107Z,2.26
2018-01-22T09:08:41.908Z,2.29
2018-01-22T09:09:41.862Z,2.33
2018-01-22T09:11:35.287Z,2.42
2018-01-22T09:12:34.836Z,2.50
2018-01-22T09:14:27.656Z,2.64
2018-01-22T09:15:27.588Z,2.57
2018-01-22T09:17:20.398Z,2.72
2018-01-22T09:18:20.353Z,2.75
2018-01-22T09:20:13.156Z,2.85
2018-01-22T09:21:13.107Z,2.83
2018-01-22T09:23:05.952Z,2.93
2018-01-22T09:24:05.905Z,2.86
2018-01-22T09:25:58.755Z,2.69
2018-01-22T09:26:58.687Z,2.71
2018-01-22T09:28:51.478Z,2.75
2018-01-22T09:29:51.427Z,2.77
2018-01-22T09:31:44.860Z,2.80
2018-01-22T09:32:44.388Z,2.82
2018-01-22T09:34:37.227Z,2.83
2018-01-22T09:35:37.150Z,2.86
2018-01-22T09:37:29.974Z,2.79
2018-01-22T09:38:29.932Z,2.79
2018-01-22T09:40:22.733Z,2.71
2018-01-22T09:41:22.669Z,2.68
2018-01-22T09:43:15.473Z,2.83
2018-01-22T09:44:15.429Z,2.95
2018-01-22T09:46:08.247Z,3.00
2018-01-22T09:47:08.193Z,3.10
2018-01-22T09:49:01.029Z,3.23
2018-01-22T09:50:00.956Z,2.98
2018-01-22T09:51:53.783Z,3.10
2018-01-22T09:52:53.701Z,3.05
2018-01-22T09:54:46.509Z,2.80
2018-01-22T09:55:46.460Z,2.95
2018-01-22T09:57:39.285Z,3.07
2018-01-22T09:58:39.223Z,3.00
2018-01-22T10:00:32.046Z,2.98
2018-01-22T10:01:31.996Z,3.01
2018-01-22T10:03:25.384Z,3.08
2018-01-22T10:04:24.932Z,3.23
2018-01-22T10:06:17.755Z,3.11
2018-01-22T10:07:17.700Z,2.97
2018-01-22T10:09:10.505Z,2.90
2018-01-22T10:10:10.470Z,2.92
2018-01-22T10:12:03.284Z,2.93
2018-01-22T10:13:03.225Z,2.85
2018-01-22T10:14:56.025Z,2.77
2018-01-22T10:15:55.982Z,2.79
2018-01-22T10:17:48.846Z,2.83
2018-01-22T10:18:48.794Z,2.95
2018-01-22T10:20:41.613Z,3.10
2018-01-22T10:21:41.544Z,3.07
2018-01-22T10:23:34.355Z,3.07
2018-01-22T10:24:34.371Z,3.11
2018-01-22T10:26:27.161Z,3.07
2018-01-22T10:27:27.106Z,3.05
2018-01-22T10:29:19.917Z,3.08
2018-01-22T10:30:19.872Z,3.25
2018-01-22T10:32:12.690Z,3.19
2018-01-22T10:33:12.654Z,3.26
2018-01-22T10:35:06.147Z,3.10
2018-01-22T10:36:05.391Z,3.10
2018-01-22T10:37:58.228Z,3.21
2018-01-22T10:38:58.167Z,3.26
2018-01-22T10:40:51.018Z,3.42
2018-01-22T10:41:50.969Z,3.31
2018-01-22T10:43:43.775Z,3.36
2018-01-22T10:44:43.725Z,3.37
2018-01-22T10:46:36.557Z,3.14
2018-01-22T10:47:36.503Z,3.26
2018-01-22T10:49:29.305Z,3.23
2018-01-22T10:50:29.254Z,3.23
2018-01-22T10:52:22.063Z,3.29
2018-01-22T10:53:22.011Z,3.42
2018-01-22T10:55:14.827Z,3.44
2018-01-22T10:56:14.773Z,3.45
2018-01-22T10:58:07.591Z,3.47
2018-01-22T10:59:07.560Z,3.44
2018-01-22T11:01:00.396Z,3.42
2018-01-22T11:02:00.312Z,3.26
2018-01-22T11:03:53.150Z,3.26
2018-01-22T11:04:53.830Z,3.44
2018-01-22T11:06:45.919Z,3.29
2018-01-22T11:07:45.851Z,3.41
2018-01-22T11:09:38.673Z,3.37
2018-01-22T11:10:38.622Z,3.44
2018-01-22T11:12:31.439Z,3.47
2018-01-22T11:13:31.378Z,3.51
2018-01-22T11:15:24.210Z,3.53
2018-01-22T11:16:24.158Z,3.53
2018-01-22T11:18:16.975Z,3.51
2018-01-22T11:19:16.926Z,3.42
2018-01-22T11:21:09.736Z,3.26
2018-01-22T11:22:09.688Z,3.14
2018-01-22T11:24:02.511Z,3.13
2018-01-22T11:25:02.455Z,3.14
2018-01-22T11:26:55.279Z,3.14
2018-01-22T11:27:55.220Z,3.11
2018-01-22T11:29:48.039Z,3.29
2018-01-22T11:30:48.014Z,3.29
2018-01-22T11:32:40.806Z,3.29
2018-01-22T11:33:40.748Z,3.21
2018-01-22T11:35:33.571Z,3.18
2018-01-22T11:36:33.541Z,3.16
2018-01-22T11:38:26.351Z,3.18
2018-01-22T11:39:26.291Z,3.14
2018-01-22T11:41:19.233Z,3.22
2018-01-22T11:42:19.064Z,3.23
2018-01-22T11:44:11.873Z,3.31
2018-01-22T11:45:11.814Z,3.13
2018-01-22T11:47:04.644Z,3.25
2018-01-22T11:48:04.586Z,3.16
2018-01-22T11:49:57.404Z,3.28
2018-01-22T11:50:57.351Z,3.36
2018-01-22T11:52:50.172Z,3.26
2018-01-22T11:53:50.120Z,3.40
2018-01-22T11:55:42.925Z,3.45
2018-01-22T11:56:42.880Z,3.44
2018-01-22T11:58:35.695Z,3.26
2018-01-22T11:59:35.647Z,3.21
2018-01-22T12:01:28.453Z,3.29
2018-01-22T12:02:28.406Z,3.25
2018-01-22T12:04:21.239Z,3.18
2018-01-22T12:05:21.171Z,3.14
2018-01-22T12:07:13.988Z,3.10
2018-01-22T12:08:13.932Z,3.10
2018-01-22T12:10:06.745Z,3.16
2018-01-22T12:11:06.694Z,3.10
2018-01-22T12:12:59.514Z,3.21
2018-01-22T12:13:59.476Z,3.23
2018-01-22T12:14:59.409Z,3.28
2018-01-22T12:15:59.366Z,3.44
2018-01-22T12:16:59.333Z,3.48
2018-01-22T12:17:59.290Z,3.44
2018-01-22T12:18:59.249Z,3.41
2018-01-22T12:19:59.206Z,3.42
2018-01-22T12:20:59.157Z,3.41
2018-01-22T12:21:59.115Z,3.26
2018-01-22T12:22:59.072Z,3.23
2018-01-22T12:23:59.031Z,3.23
2018-01-22T12:24:59.000Z,3.29
2018-01-22T12:25:58.952Z,3.42
2018-01-22T12:26:58.917Z,3.44
2018-01-22T12:27:58.863Z,3.50
2018-01-22T12:28:58.825Z,3.45
2018-01-22T12:29:58.833Z,3.26
2018-01-22T12:30:58.736Z,3.32
2018-01-22T12:31:58.702Z,3.32
2018-01-22T12:32:58.660Z,3.41
2018-01-22T12:33:58.618Z,3.48
2018-01-22T12:34:58.568Z,3.37
2018-01-22T12:35:58.524Z,3.45
2018-01-22T12:36:58.580Z,3.32
2018-01-22T12:37:58.443Z,3.47
2018-01-22T12:38:58.421Z,3.51
2018-01-22T12:39:58.369Z,3.51
2018-01-22T12:40:58.331Z,3.50
2018-01-22T12:41:58.282Z,3.51
2018-01-22T12:42:58.262Z,3.59
2018-01-22T12:43:58.200Z,3.58
2018-01-22T12:44:58.151Z,3.48
2018-01-22T12:45:58.111Z,3.60
2018-01-22T12:46:58.067Z,3.51
2018-01-22T12:47:58.032Z,3.60
2018-01-22T12:48:57.984Z,3.59
2018-01-22T12:49:57.951Z,3.55
2018-01-22T12:50:57.907Z,3.55
2018-01-22T12:51:57.860Z,3.42
2018-01-22T12:52:57.862Z,3.44
2018-01-22T12:53:57.782Z,3.48
2018-01-22T12:54:57.739Z,3.37
2018-01-22T12:55:57.703Z,3.29
2018-01-22T12:56:57.643Z,3.31
2018-01-22T12:57:57.600Z,3.45
2018-01-22T12:58:57.560Z,3.36
2018-01-22T12:59:57.517Z,3.42
2018-01-22T13:00:57.471Z,3.53
2018-01-22T13:01:57.433Z,3.53
2018-01-22T13:02:57.400Z,3.51
2018-01-22T13:03:57.350Z,3.59
2018-01-22T13:04:57.303Z,3.58
2018-01-22T13:05:57.262Z,3.63
2018-01-22T13:06:57.223Z,3.59
2018-01-22T13:07:57.180Z,3.65
2018-01-22T13:08:57.149Z,3.73
2018-01-22T13:09:57.092Z,3.63
2018-01-22T13:10:57.053Z,3.76
2018-01-22T13:11:57.025Z,3.60
2018-01-22T13:12:56.970Z,3.65
2018-01-22T13:13:56.926Z,3.51
2018-01-22T13:14:56.884Z,3.51
2018-01-22T13:15:56.844Z,3.42
2018-01-22T13:16:56.821Z,3.53
2018-01-22T13:17:56.760Z,3.50
2018-01-22T13:18:56.722Z,3.44
2018-01-22T13:19:56.677Z,3.53
2018-01-22T13:20:56.635Z,3.51
2018-01-22T13:21:56.592Z,3.50
2018-01-22T13:22:56.548Z,3.59
2018-01-22T13:23:56.507Z,3.48
2018-01-22T13:24:56.469Z,3.58
2018-01-22T13:25:56.431Z,3.59
2018-01-22T13:26:56.384Z,3.56
2018-01-22T13:27:56.342Z,3.59
2018-01-22T13:28:56.301Z,3.56
2018-01-22T13:29:56.257Z,3.56
2018-01-22T13:30:56.214Z,3.44
2018-01-22T13:31:56.206Z,3.41
2018-01-22T13:32:56.130Z,3.42
2018-01-22T13:33:56.088Z,3.48
2018-01-22T13:34:56.046Z,3.58
2018-01-22T13:35:56.005Z,3.51
2018-01-22T13:36:55.972Z,3.60
2018-01-22T13:37:55.958Z,3.51
2018-01-22T13:38:55.888Z,3.56
2018-01-22T13:39:55.860Z,3.56
2018-01-22T13:40:55.793Z,3.60
2018-01-22T13:41:55.752Z,3.47
2018-01-22T13:42:55.712Z,3.51
2018-01-22T13:43:55.672Z,3.60
2018-01-22T13:44:55.628Z,3.58
2018-01-22T13:45:55.592Z,3.63
2018-01-22T13:46:55.545Z,3.47
2018-01-22T13:47:55.502Z,3.62
2018-01-22T13:48:55.458Z,3.48
2018-01-22T13:49:55.416Z,3.59
2018-01-22T13:50:55.378Z,3.53
2018-01-22T13:51:55.339Z,3.53
2018-01-22T13:52:55.290Z,3.50
2018-01-22T13:53:55.248Z,3.47
2018-01-22T13:54:55.205Z,3.50
2018-01-22T13:55:55.176Z,3.60
2018-01-22T13:56:55.122Z,3.48
2018-01-22T13:57:55.086Z,3.51
2018-01-22T13:58:55.044Z,3.55
2018-01-22T13:59:54.995Z,3.40
2018-01-22T14:00:54.954Z,3.48
2018-01-22T14:01:54.920Z,3.41
2018-01-22T14:02:54.871Z,3.42
2018-01-22T14:03:54.827Z,3.42
2018-01-22T14:04:54.787Z,3.45
2018-01-22T14:05:54.745Z,3.44
2018-01-22T14:06:54.703Z,3.45
2018-01-22T14:07:54.659Z,3.47
2018-01-22T14:08:54.623Z,3.41
2018-01-22T14:09:54.583Z,3.37
2018-01-22T14:10:54.535Z,3.28
2018-01-22T14:11:54.490Z,3.29
2018-01-22T14:12:54.458Z,3.25
2018-01-22T14:13:54.408Z,3.37
2018-01-22T14:14:54.372Z,3.28
2018-01-22T14:15:54.338Z,3.36
2018-01-22T14:16:54.281Z,3.26
2018-01-22T14:17:54.244Z,3.29
2018-01-22T14:18:54.201Z,3.25
2018-01-22T14:19:54.150Z,3.26
2018-01-22T14:20:54.113Z,3.34
2018-01-22T14:21:54.071Z,3.25
2018-01-22T14:22:54.027Z,3.26
2018-01-22T14:23:53.990Z,3.25
2018-01-22T14:24:53.943Z,3.40
2018-01-22T14:25:53.907Z,3.34
2018-01-22T14:26:53.862Z,3.34
2018-01-22T14:27:53.814Z,3.25
2018-01-22T14:28:53.798Z,3.26
2018-01-22T14:29:53.727Z,3.25
2018-01-22T14:30:53.696Z,3.25
2018-01-22T14:31:53.648Z,3.28
2018-01-22T14:32:53.603Z,3.13
2018-01-22T14:33:53.567Z,3.23
2018-01-22T14:34:53.517Z,3.31
2018-01-22T14:35:53.484Z,3.28
2018-01-22T14:36:53.451Z,3.42
2018-01-22T14:37:53.391Z,3.31
2018-01-22T14:38:53.346Z,3.42
2018-01-22T14:39:53.306Z,3.44
2018-01-22T14:40:53.263Z,3.44
2018-01-22T14:41:53.225Z,3.41
2018-01-22T14:42:53.180Z,3.50
2018-01-22T14:43:53.138Z,3.41
2018-01-22T14:44:53.111Z,3.42
2018-01-22T14:45:53.104Z,3.41
2018-01-22T14:46:53.011Z,3.47
2018-01-22T14:47:52.970Z,3.40
2018-01-22T14:48:52.942Z,3.50
2018-01-22T14:49:52.892Z,3.56
2018-01-22T14:50:52.851Z,3.55
2018-01-22T14:51:52.841Z,3.48
2018-01-22T14:52:52.768Z,3.40
2018-01-22T14:53:52.715Z,3.44
2018-01-22T14:54:52.679Z,3.60
2018-01-22T14:55:52.625Z,3.48
2018-01-22T14:56:52.600Z,3.51
2018-01-22T14:57:52.567Z,3.41
2018-01-22T14:58:52.555Z,3.50
2018-01-22T14:59:52.469Z,3.56
2018-01-22T15:00:52.425Z,3.55
2018-01-22T15:01:52.386Z,3.50
2018-01-22T15:02:52.344Z,3.55
2018-01-22T15:03:52.299Z,3.50
2018-01-22T15:04:52.257Z,3.41
2018-01-22T15:05:52.208Z,3.48
2018-01-22T15:06:52.170Z,3.56
2018-01-22T15:07:52.122Z,3.56
2018-01-22T15:08:52.095Z,3.63
2018-01-22T15:09:52.052Z,3.55
2018-01-22T15:10:52.000Z,3.48
2018-01-22T15:11:51.964Z,3.42
2018-01-22T15:12:51.914Z,3.42
2018-01-22T15:13:51.879Z,3.37
2018-01-22T15:14:51.831Z,3.47
2018-01-22T15:15:51.801Z,3.44
2018-01-22T15:16:51.741Z,3.41
2018-01-22T15:17:51.712Z,3.41
2018-01-22T15:18:51.665Z,3.48
2018-01-22T15:19:51.614Z,3.40
2018-01-22T15:20:51.574Z,3.42
2018-01-22T15:21:51.537Z,3.28
2018-01-22T15:22:51.490Z,3.29
2018-01-22T15:23:51.446Z,3.25
2018-01-22T15:24:51.417Z,3.22
2018-01-22T15:25:51.371Z,3.22
2018-01-22T15:26:51.371Z,3.36
2018-01-22T15:27:51.277Z,3.26
2018-01-22T15:28:51.244Z,3.23
2018-01-22T15:29:51.192Z,3.34
2018-01-22T15:30:51.149Z,3.25
2018-01-22T15:31:51.105Z,3.28
2018-01-22T15:32:51.070Z,3.28
2018-01-22T15:33:51.038Z,3.36
2018-01-22T15:34:50.977Z,3.37
2018-01-22T15:35:50.953Z,3.23
2018-01-22T15:36:50.915Z,3.36
2018-01-22T15:37:50.868Z,3.34
2018-01-22T15:38:50.839Z,3.31
2018-01-22T15:39:50.769Z,3.44
2018-01-22T15:40:50.727Z,3.29
2018-01-22T15:41:50.685Z,3.32
2018-01-22T15:42:50.645Z,3.26
2018-01-22T15:43:50.599Z,3.36
2018-01-22T15:44:50.554Z,3.10
2018-01-22T15:45:50.517Z,3.18
2018-01-22T15:46:50.472Z,3.07
2018-01-22T15:47:50.434Z,3.07
2018-01-22T15:48:50.384Z,2.98
2018-01-22T15:49:50.342Z,2.87
2018-01-22T15:50:50.324Z,2.97
2018-01-22T15:51:50.259Z,2.90
2018-01-22T15:52:50.223Z,2.83
2018-01-22T15:53:50.173Z,2.87
2018-01-22T15:54:50.135Z,2.82
2018-01-22T15:55:50.092Z,2.80
2018-01-22T15:56:50.054Z,2.92
2018-01-22T15:57:50.005Z,2.92
2018-01-22T15:58:49.966Z,2.82
2018-01-22T15:59:49.929Z,2.85
2018-01-22T16:00:49.889Z,2.83
2018-01-22T16:01:49.840Z,2.85
2018-01-22T16:02:49.789Z,2.85
2018-01-22T16:03:49.768Z,2.83